createdAt,value
2024-04-30T00:01:01.526Z,13.13
2024-04-30T00:03:28.944Z,13.14
2024-04-30T00:05:58.776Z,13.05
2024-04-30T00:08:26.068Z,13.01
2024-04-30T00:10:55.962Z,13.01
2024-04-30T00:13:23.171Z,13.06
2024-04-30T00:15:55.821Z,13.07
2024-04-30T00:18:23.085Z,13.10
2024-04-30T00:20:52.883Z,13.12
2024-04-30T00:23:20.085Z,13.07
2024-04-30T00:25:49.959Z,13.03
2024-04-30T00:28:17.240Z,13.03
2024-04-30T00:30:47.084Z,13.04
2024-04-30T00:33:16.896Z,13.10
2024-04-30T00:35:46.976Z,13.01
2024-04-30T00:38:14.146Z,12.98
2024-04-30T00:40:44.054Z,13.04
2024-04-30T00:43:11.299Z,13.08
2024-04-30T00:45:41.099Z,13.06
2024-04-30T00:48:09.228Z,13.05
2024-04-30T00:50:43.800Z,13.03
2024-04-30T00:53:11.008Z,13.00
2024-04-30T00:55:41.850Z,12.99
2024-04-30T00:58:09.070Z,12.96
2024-04-30T01:00:38.948Z,12.96
2024-04-30T01:03:06.722Z,13.01
2024-04-30T01:05:36.527Z,13.05
2024-04-30T01:08:06.910Z,12.98
2024-04-30T01:10:36.998Z,12.87
2024-04-30T01:13:05.411Z,12.76
2024-04-30T01:15:35.766Z,12.68
2024-04-30T01:18:03.003Z,12.59
2024-04-30T01:20:32.843Z,12.51
2024-04-30T01:23:02.689Z,12.39
2024-04-30T01:25:32.666Z,12.35
2024-04-30T01:27:59.936Z,12.33
2024-04-30T01:30:29.701Z,12.26
2024-04-30T01:32:57.006Z,12.09
2024-04-30T01:35:26.903Z,12.03
2024-04-30T01:37:54.078Z,12.01
2024-04-30T01:40:26.564Z,11.92
2024-04-30T01:42:53.717Z,11.79
2024-04-30T01:45:23.545Z,11.68
2024-04-30T01:47:55.677Z,11.62
2024-04-30T01:50:25.479Z,11.59
2024-04-30T01:52:52.611Z,11.52
2024-04-30T01:55:22.425Z,11.48
2024-04-30T01:57:52.205Z,11.39
2024-04-30T02:00:22.038Z,11.35
2024-04-30T02:02:49.200Z,11.34
2024-04-30T02:05:24.839Z,11.28
2024-04-30T02:07:52.969Z,11.16
2024-04-30T02:10:22.804Z,11.09
2024-04-30T02:12:53.546Z,11.06
2024-04-30T02:15:23.280Z,10.95
2024-04-30T02:17:50.741Z,10.80
2024-04-30T02:20:20.597Z,10.77
2024-04-30T02:22:47.749Z,10.79
2024-04-30T02:25:17.750Z,10.73
2024-04-30T02:27:44.924Z,10.70
2024-04-30T02:30:37.978Z,10.66
2024-04-30T02:33:31.909Z,10.64
2024-04-30T02:36:02.939Z,10.63
2024-04-30T02:38:32.896Z,10.58
2024-04-30T02:41:02.701Z,10.58
2024-04-30T02:43:32.826Z,10.60
2024-04-30T02:46:03.632Z,10.60
2024-04-30T02:48:33.439Z,10.49
2024-04-30T02:51:02.444Z,10.37
2024-04-30T02:53:32.437Z,10.25
2024-04-30T02:55:59.611Z,10.25
2024-04-30T02:58:29.444Z,10.15
2024-04-30T03:00:56.632Z,10.04
2024-04-30T03:03:29.892Z,10.07
2024-04-30T03:05:58.184Z,10.05
2024-04-30T03:08:27.976Z,10.12
2024-04-30T03:10:55.684Z,10.18
2024-04-30T03:13:25.559Z,10.16
2024-04-30T03:15:52.762Z,10.07
2024-04-30T03:18:22.584Z,10.04
2024-04-30T03:20:52.424Z,10.04
2024-04-30T03:23:22.194Z,9.97
2024-04-30T03:25:49.330Z,9.93
2024-04-30T03:28:19.156Z,9.92
2024-04-30T03:30:46.304Z,9.93
2024-04-30T03:33:16.216Z,9.91
2024-04-30T03:35:43.424Z,9.90
2024-04-30T03:38:15.872Z,9.88
2024-04-30T03:40:46.597Z,9.85
2024-04-30T03:43:16.463Z,9.78
2024-04-30T03:45:47.581Z,9.69
2024-04-30T03:48:17.485Z,9.75
2024-04-30T03:50:48.357Z,9.75
2024-04-30T03:53:18.158Z,9.74
2024-04-30T03:55:47.918Z,9.70
2024-04-30T03:58:15.118Z,9.69
2024-04-30T04:00:44.924Z,9.69
2024-04-30T04:03:12.139Z,9.69
2024-04-30T04:05:42.254Z,9.68
2024-04-30T04:08:09.457Z,9.71
2024-04-30T04:10:42.829Z,9.70
2024-04-30T04:13:29.006Z,9.69
2024-04-30T04:15:58.811Z,9.70
2024-04-30T04:18:28.836Z,9.70
2024-04-30T04:20:58.776Z,9.66
2024-04-30T04:23:25.892Z,9.66
2024-04-30T04:25:58.306Z,9.69
2024-04-30T04:28:25.514Z,9.80
2024-04-30T04:30:55.299Z,9.85
2024-04-30T04:33:22.519Z,9.95
2024-04-30T04:35:52.335Z,10.07
2024-04-30T04:38:22.958Z,10.09
2024-04-30T04:40:50.159Z,10.19
2024-04-30T04:43:22.656Z,10.22
2024-04-30T04:45:49.801Z,10.28
2024-04-30T04:48:19.679Z,10.39
2024-04-30T04:50:46.898Z,10.48
2024-04-30T04:53:16.696Z,10.55
2024-04-30T04:55:43.911Z,10.60
2024-04-30T04:58:13.814Z,10.64
2024-04-30T05:00:43.635Z,10.69
2024-04-30T05:03:13.472Z,10.89
2024-04-30T05:05:40.665Z,10.96
2024-04-30T05:08:10.526Z,11.17
2024-04-30T05:10:37.855Z,11.36
2024-04-30T05:13:08.006Z,11.51
2024-04-30T05:15:35.151Z,11.65
2024-04-30T05:18:08.397Z,11.85
2024-04-30T05:20:35.646Z,12.04
2024-04-30T05:23:05.575Z,12.21
2024-04-30T05:25:32.923Z,12.44
2024-04-30T05:28:02.905Z,12.63
2024-04-30T05:30:30.302Z,12.84
2024-04-30T05:33:00.212Z,12.99
2024-04-30T05:35:30.075Z,13.16
2024-04-30T05:37:59.870Z,13.29
2024-04-30T05:40:27.058Z,13.57
2024-04-30T05:42:57.500Z,13.76
2024-04-30T05:45:24.675Z,13.96
2024-04-30T05:47:54.511Z,14.20
2024-04-30T05:50:22.017Z,14.35
2024-04-30T05:52:54.480Z,14.66
2024-04-30T05:55:21.664Z,14.96
2024-04-30T05:57:51.552Z,15.26
2024-04-30T06:00:19.666Z,15.63
2024-04-30T06:02:49.402Z,15.95
2024-04-30T06:05:16.741Z,16.27
2024-04-30T06:07:46.793Z,16.67
2024-04-30T06:10:16.802Z,17.07
2024-04-30T06:12:46.609Z,17.39
2024-04-30T06:15:14.004Z,17.72
2024-04-30T06:17:43.904Z,17.95
2024-04-30T06:20:11.185Z,18.36
2024-04-30T06:22:41.070Z,18.54
2024-04-30T06:25:08.387Z,18.92
2024-04-30T06:27:40.885Z,19.17
2024-04-30T06:30:08.704Z,19.54
2024-04-30T06:32:38.551Z,19.92
2024-04-30T06:35:09.346Z,20.24
2024-04-30T06:37:36.725Z,20.24
2024-04-30T06:40:06.948Z,20.75
2024-04-30T06:42:34.840Z,21.13
2024-04-30T06:45:07.946Z,20.98
2024-04-30T06:47:35.156Z,21.38
2024-04-30T06:50:05.027Z,21.57
2024-04-30T06:52:32.332Z,22.03
2024-04-30T06:55:02.236Z,22.01
2024-04-30T06:57:29.463Z,22.23
2024-04-30T06:59:59.434Z,22.13
2024-04-30T07:02:29.331Z,22.84
2024-04-30T07:04:59.318Z,22.98
2024-04-30T07:07:26.552Z,23.08
2024-04-30T07:09:56.389Z,23.62
2024-04-30T07:12:23.617Z,23.96
2024-04-30T07:14:53.459Z,24.23
2024-04-30T07:17:20.704Z,24.57
2024-04-30T07:19:53.260Z,24.76
2024-04-30T07:22:20.695Z,24.55
2024-04-30T07:24:50.557Z,25.11
2024-04-30T07:27:17.854Z,25.56
2024-04-30T07:29:47.830Z,25.77
2024-04-30T07:32:15.026Z,25.64
2024-04-30T07:34:44.959Z,25.90
2024-04-30T07:37:14.862Z,25.35
2024-04-30T07:39:44.773Z,25.91
2024-04-30T07:42:11.903Z,25.12
2024-04-30T07:44:41.735Z,25.65
2024-04-30T07:47:09.021Z,26.44
2024-04-30T07:49:39.118Z,25.98
2024-04-30T07:52:06.864Z,26.28
2024-04-30T07:54:39.295Z,26.77
2024-04-30T07:57:06.678Z,26.44
2024-04-30T07:59:36.472Z,26.69
2024-04-30T08:02:04.208Z,26.76
2024-04-30T08:04:34.060Z,26.89
2024-04-30T08:07:01.257Z,27.51
2024-04-30T08:09:31.068Z,27.18
2024-04-30T08:12:01.017Z,27.75
2024-04-30T08:14:36.066Z,28.41
2024-04-30T08:17:06.624Z,28.29
2024-04-30T08:19:33.936Z,28.56
2024-04-30T08:22:03.798Z,27.50
2024-04-30T08:24:33.570Z,28.19
2024-04-30T08:27:03.579Z,29.33
2024-04-30T08:29:33.362Z,28.95
2024-04-30T08:32:00.989Z,28.56
2024-04-30T08:34:30.833Z,28.63
2024-04-30T08:37:01.184Z,29.00
2024-04-30T08:39:28.335Z,29.28
2024-04-30T08:41:59.501Z,29.26
2024-04-30T08:44:31.192Z,29.22
2024-04-30T08:47:03.847Z,29.90
2024-04-30T08:49:38.740Z,29.22
2024-04-30T08:52:16.389Z,29.75
2024-04-30T08:54:43.872Z,29.47
2024-04-30T08:57:13.642Z,29.39
2024-04-30T08:59:43.431Z,29.74
2024-04-30T09:02:14.359Z,30.09
2024-04-30T09:04:43.145Z,31.20
2024-04-30T09:07:13.358Z,31.18
2024-04-30T09:09:40.531Z,30.77
2024-04-30T09:12:10.909Z,31.31
2024-04-30T09:14:46.023Z,30.39
2024-04-30T09:17:15.841Z,30.55
2024-04-30T09:19:43.059Z,30.88
2024-04-30T09:22:12.957Z,30.16
2024-04-30T09:24:47.561Z,30.72
2024-04-30T09:27:17.769Z,30.45
2024-04-30T09:29:47.571Z,30.14
2024-04-30T09:32:18.502Z,30.39
2024-04-30T09:34:46.362Z,30.08
2024-04-30T09:37:22.240Z,29.83
2024-04-30T09:39:51.055Z,30.40
2024-04-30T09:42:21.312Z,31.02
2024-04-30T09:44:53.770Z,31.56
2024-04-30T09:47:24.456Z,32.02
2024-04-30T09:49:54.059Z,31.41
2024-04-30T09:52:25.058Z,31.40
2024-04-30T09:54:59.081Z,32.46
2024-04-30T09:57:28.481Z,31.47
2024-04-30T10:00:01.158Z,32.12
2024-04-30T10:02:31.629Z,31.23
2024-04-30T10:05:03.771Z,31.17
2024-04-30T10:07:32.528Z,33.06
2024-04-30T10:10:02.308Z,32.18
2024-04-30T10:12:31.415Z,31.92
2024-04-30T10:15:15.310Z,32.61
2024-04-30T10:17:42.874Z,32.64
2024-04-30T10:20:13.195Z,32.76
2024-04-30T10:22:44.228Z,33.04
2024-04-30T10:25:24.039Z,33.60
2024-04-30T10:27:51.875Z,33.68
2024-04-30T10:30:28.096Z,33.55
2024-04-30T10:32:56.446Z,33.29
2024-04-30T10:35:26.339Z,33.83
2024-04-30T10:37:53.673Z,33.81
2024-04-30T10:40:23.679Z,32.59
2024-04-30T10:42:50.871Z,32.02
2024-04-30T10:45:29.235Z,32.80
2024-04-30T10:47:56.556Z,32.99
2024-04-30T10:50:29.929Z,33.46
2024-04-30T10:53:03.653Z,33.76
2024-04-30T10:55:34.225Z,32.58
2024-04-30T10:58:11.280Z,32.87
2024-04-30T11:00:49.864Z,32.78
2024-04-30T11:03:23.710Z,32.36
2024-04-30T11:06:00.652Z,33.73
2024-04-30T11:08:32.779Z,33.62
2024-04-30T11:11:10.481Z,32.01
2024-04-30T11:13:40.492Z,32.37
2024-04-30T11:16:15.559Z,33.16
2024-04-30T11:18:46.382Z,33.99
2024-04-30T11:21:13.758Z,34.35
2024-04-30T11:23:43.523Z,33.37
2024-04-30T11:26:10.668Z,33.40
2024-04-30T11:28:40.499Z,32.40
2024-04-30T11:31:10.476Z,33.96
2024-04-30T11:33:40.298Z,34.22
2024-04-30T11:36:09.070Z,34.49
2024-04-30T11:38:38.949Z,35.02
2024-04-30T11:41:06.181Z,34.28
2024-04-30T11:43:36.557Z,35.73
2024-04-30T11:46:03.943Z,34.93
2024-04-30T11:48:36.930Z,34.32
2024-04-30T11:51:04.514Z,34.38
2024-04-30T11:53:36.722Z,33.83
2024-04-30T11:56:05.055Z,34.74
2024-04-30T11:58:34.904Z,34.22
2024-04-30T12:01:02.117Z,34.64
2024-04-30T12:03:31.938Z,33.42
2024-04-30T12:06:04.248Z,34.59
2024-04-30T12:08:38.041Z,33.79
2024-04-30T12:11:05.375Z,34.07
2024-04-30T12:13:35.367Z,32.97
2024-04-30T12:16:02.556Z,35.21
2024-04-30T12:18:32.394Z,36.09
2024-04-30T12:20:59.684Z,34.97
2024-04-30T12:23:32.099Z,34.78
2024-04-30T12:25:59.290Z,36.44
2024-04-30T12:28:29.109Z,35.53
2024-04-30T12:30:57.712Z,35.09
2024-04-30T12:33:29.785Z,33.98
2024-04-30T12:35:57.071Z,34.10
2024-04-30T12:38:26.948Z,35.09
2024-04-30T12:40:56.723Z,36.25
2024-04-30T12:43:26.869Z,35.70
2024-04-30T12:45:55.135Z,35.24
2024-04-30T12:48:25.054Z,35.93
2024-04-30T12:50:52.331Z,36.04
2024-04-30T12:53:22.120Z,35.84
2024-04-30T12:55:49.404Z,35.79
2024-04-30T12:58:23.510Z,37.22
2024-04-30T13:00:54.371Z,35.71
2024-04-30T13:03:24.209Z,36.38
2024-04-30T13:05:54.308Z,36.30
2024-04-30T13:08:22.271Z,35.52
2024-04-30T13:10:52.702Z,35.73
2024-04-30T13:13:22.656Z,36.48
2024-04-30T13:15:52.476Z,35.45
2024-04-30T13:18:19.799Z,34.31
2024-04-30T13:20:49.634Z,35.77
2024-04-30T13:23:16.810Z,35.46
2024-04-30T13:25:46.931Z,35.08
2024-04-30T13:28:14.116Z,35.11
2024-04-30T13:30:46.685Z,35.44
2024-04-30T13:33:15.332Z,36.78
2024-04-30T13:35:45.242Z,36.71
2024-04-30T13:38:12.484Z,35.94
2024-04-30T13:40:42.335Z,36.78
2024-04-30T13:43:09.773Z,35.67
2024-04-30T13:45:39.587Z,36.62
2024-04-30T13:48:09.782Z,35.58
2024-04-30T13:50:39.679Z,35.52
2024-04-30T13:53:06.963Z,34.42
2024-04-30T13:55:36.905Z,34.81
2024-04-30T13:58:05.356Z,33.75
2024-04-30T14:00:35.152Z,34.78
2024-04-30T14:03:03.278Z,33.08
2024-04-30T14:05:38.680Z,32.65
2024-04-30T14:08:06.814Z,33.98
2024-04-30T14:10:39.933Z,34.94
2024-04-30T14:13:07.435Z,34.83
2024-04-30T14:15:37.272Z,33.88
2024-04-30T14:18:07.292Z,33.11
2024-04-30T14:20:40.934Z,33.43
2024-04-30T14:23:08.126Z,33.74
2024-04-30T14:25:37.941Z,33.24
2024-04-30T14:28:06.589Z,34.64
2024-04-30T14:30:37.259Z,34.22
2024-04-30T14:33:04.890Z,33.32
2024-04-30T14:35:54.806Z,33.47
2024-04-30T14:38:24.592Z,33.36
2024-04-30T14:40:54.942Z,32.97
2024-04-30T14:43:22.180Z,32.91
2024-04-30T14:45:51.945Z,33.10
2024-04-30T14:48:21.920Z,33.15
2024-04-30T14:50:55.253Z,33.36
2024-04-30T14:53:25.265Z,33.41
2024-04-30T14:55:55.024Z,32.67
2024-04-30T14:58:22.275Z,33.13
2024-04-30T15:00:52.086Z,32.71
2024-04-30T15:03:23.771Z,32.88
2024-04-30T15:05:54.310Z,32.54
2024-04-30T15:08:22.749Z,31.82
2024-04-30T15:10:55.376Z,31.85
2024-04-30T15:13:22.610Z,31.34
2024-04-30T15:15:52.432Z,32.00
2024-04-30T15:18:22.555Z,31.00
2024-04-30T15:20:49.835Z,30.78
2024-04-30T15:23:19.659Z,30.21
2024-04-30T15:25:49.561Z,30.91
2024-04-30T15:28:19.401Z,30.76
2024-04-30T15:30:49.204Z,30.98
2024-04-30T15:33:16.428Z,31.28
2024-04-30T15:35:46.222Z,31.07
2024-04-30T15:38:13.369Z,31.23
2024-04-30T15:40:43.457Z,31.20
2024-04-30T15:43:10.735Z,30.94
2024-04-30T15:45:43.194Z,31.14
2024-04-30T15:48:11.631Z,31.11
2024-04-30T15:50:41.642Z,30.83
2024-04-30T15:53:08.804Z,31.13
2024-04-30T15:55:38.646Z,30.55
2024-04-30T15:58:05.865Z,30.69
2024-04-30T16:00:35.854Z,30.51
2024-04-30T16:03:08.719Z,30.30
2024-04-30T16:05:35.910Z,30.30
2024-04-30T16:08:05.900Z,30.04
2024-04-30T16:10:35.268Z,30.19
2024-04-30T16:13:05.107Z,29.80
2024-04-30T16:15:32.249Z,29.88
2024-04-30T16:18:03.792Z,30.08
2024-04-30T16:20:33.721Z,29.66
2024-04-30T16:23:03.482Z,29.61
2024-04-30T16:25:31.942Z,29.73
2024-04-30T16:28:04.376Z,29.52
2024-04-30T16:30:34.223Z,29.02
2024-04-30T16:33:01.468Z,28.89
2024-04-30T16:35:31.330Z,28.49
2024-04-30T16:38:01.297Z,28.46
2024-04-30T16:40:31.165Z,28.30
2024-04-30T16:42:58.537Z,28.52
2024-04-30T16:45:28.397Z,28.54
2024-04-30T16:47:59.331Z,28.44
2024-04-30T16:50:26.576Z,28.66
2024-04-30T16:52:59.091Z,28.12
2024-04-30T16:55:29.250Z,28.07
2024-04-30T16:57:59.849Z,27.85
2024-04-30T17:00:27.151Z,27.78
2024-04-30T17:02:56.923Z,27.66
2024-04-30T17:05:26.147Z,27.49
2024-04-30T17:07:55.922Z,27.62
2024-04-30T17:10:23.200Z,27.47
2024-04-30T17:12:55.615Z,27.33
2024-04-30T17:15:22.882Z,26.91
2024-04-30T17:17:52.757Z,26.98
2024-04-30T17:20:19.958Z,27.01
2024-04-30T17:22:49.775Z,26.86
2024-04-30T17:25:16.925Z,26.72
2024-04-30T17:27:46.752Z,26.39
2024-04-30T17:30:16.755Z,26.20
2024-04-30T17:32:46.593Z,26.00
2024-04-30T17:35:13.908Z,25.71
2024-04-30T17:37:43.695Z,25.43
2024-04-30T17:40:12.308Z,25.07
2024-04-30T17:42:42.218Z,24.87
2024-04-30T17:45:09.764Z,24.68
2024-04-30T17:47:42.301Z,24.43
2024-04-30T17:50:09.784Z,24.20
2024-04-30T17:52:39.532Z,24.00
2024-04-30T17:55:06.904Z,23.79
2024-04-30T17:57:36.750Z,23.60
2024-04-30T18:00:04.372Z,23.35
2024-04-30T18:02:44.456Z,23.10
2024-04-30T18:05:11.724Z,22.87
2024-04-30T18:07:41.599Z,22.65
2024-04-30T18:10:11.007Z,22.41
2024-04-30T18:12:41.939Z,22.18
2024-04-30T18:15:13.266Z,21.97
2024-04-30T18:17:45.768Z,21.71
2024-04-30T18:20:13.043Z,21.49
2024-04-30T18:22:42.867Z,21.34
2024-04-30T18:25:13.155Z,21.17
2024-04-30T18:27:42.992Z,21.05
2024-04-30T18:30:11.214Z,20.88
2024-04-30T18:32:41.022Z,20.72
2024-04-30T18:35:11.223Z,20.59
2024-04-30T18:37:41.894Z,20.54
2024-04-30T18:40:12.882Z,20.47
2024-04-30T18:42:41.066Z,20.40
2024-04-30T18:45:10.987Z,20.33
2024-04-30T18:47:38.290Z,20.21
2024-04-30T18:50:09.216Z,20.11
2024-04-30T18:52:39.084Z,20.04
2024-04-30T18:55:09.327Z,19.94
2024-04-30T18:57:37.159Z,19.85
2024-04-30T19:00:07.475Z,19.79
2024-04-30T19:02:37.290Z,19.71
2024-04-30T19:05:06.498Z,19.64
2024-04-30T19:07:36.682Z,19.57
2024-04-30T19:10:07.356Z,19.45
2024-04-30T19:12:37.241Z,19.34
2024-04-30T19:15:04.860Z,19.26
2024-04-30T19:17:34.747Z,19.19
2024-04-30T19:20:01.969Z,19.15
2024-04-30T19:22:31.776Z,19.08
2024-04-30T19:24:58.940Z,19.01
2024-04-30T19:27:31.874Z,18.91
2024-04-30T19:29:59.048Z,18.79
2024-04-30T19:32:29.144Z,18.71
2024-04-30T19:34:56.405Z,18.61
2024-04-30T19:37:26.161Z,18.51
2024-04-30T19:39:53.401Z,18.42
2024-04-30T19:42:23.485Z,18.30
2024-04-30T19:44:53.367Z,18.22
2024-04-30T19:47:23.165Z,18.11
2024-04-30T19:49:50.582Z,18.06
2024-04-30T19:52:20.450Z,17.99
2024-04-30T19:54:47.656Z,17.94
2024-04-30T19:57:17.551Z,17.93
2024-04-30T19:59:46.612Z,17.88
2024-04-30T20:02:19.128Z,17.90
2024-04-30T20:04:46.509Z,17.87
2024-04-30T20:07:16.429Z,17.80
2024-04-30T20:09:43.873Z,17.81
2024-04-30T20:12:13.715Z,17.82
2024-04-30T20:14:40.898Z,17.82
2024-04-30T20:17:10.988Z,17.84
2024-04-30T20:19:40.769Z,17.84
2024-04-30T20:22:10.738Z,17.84
2024-04-30T20:24:37.949Z,17.80
2024-04-30T20:27:08.604Z,17.77
2024-04-30T20:29:38.397Z,17.74
2024-04-30T20:32:05.993Z,17.73
2024-04-30T20:34:35.827Z,17.68
2024-04-30T20:37:05.699Z,17.61
2024-04-30T20:39:35.618Z,17.63
2024-04-30T20:42:03.422Z,17.58
2024-04-30T20:44:33.337Z,17.57
2024-04-30T20:47:00.520Z,17.51
2024-04-30T20:49:33.468Z,17.50
2024-04-30T20:52:00.834Z,17.42
2024-04-30T20:54:33.477Z,17.39
2024-04-30T20:57:03.286Z,17.35
2024-04-30T20:59:30.510Z,17.32
2024-04-30T21:02:00.451Z,17.28
2024-04-30T21:04:27.828Z,17.25
2024-04-30T21:06:57.769Z,17.23
2024-04-30T21:09:24.958Z,17.25
2024-04-30T21:11:57.393Z,17.19
2024-04-30T21:14:24.645Z,17.17
2024-04-30T21:16:54.467Z,17.14
2024-04-30T21:19:21.881Z,17.08
2024-04-30T21:21:51.754Z,17.10
2024-04-30T21:24:19.069Z,17.04
2024-04-30T21:26:48.871Z,17.02
2024-04-30T21:29:18.682Z,17.06
2024-04-30T21:31:48.464Z,17.08
2024-04-30T21:34:15.651Z,17.06
2024-04-30T21:36:47.095Z,17.04
2024-04-30T21:39:14.627Z,16.98
2024-04-30T21:41:44.535Z,16.86
2024-04-30T21:44:11.664Z,16.83
2024-04-30T21:46:45.703Z,16.85
2024-04-30T21:49:13.313Z,16.90
2024-04-30T21:51:46.296Z,16.87
2024-04-30T21:54:14.111Z,16.85
2024-04-30T21:56:45.495Z,16.87
2024-04-30T21:59:17.106Z,16.79
2024-04-30T22:01:50.126Z,16.78
2024-04-30T22:04:21.616Z,16.74
2024-04-30T22:06:49.211Z,16.71
2024-04-30T22:09:19.382Z,16.64
2024-04-30T22:11:48.212Z,16.61
2024-04-30T22:14:19.233Z,16.61
2024-04-30T22:16:46.477Z,16.59
2024-04-30T22:19:19.015Z,16.58
2024-04-30T22:21:47.547Z,16.58
2024-04-30T22:24:17.472Z,16.54
2024-04-30T22:26:44.694Z,16.53
2024-04-30T22:29:14.543Z,16.45
2024-04-30T22:31:41.735Z,16.40
2024-04-30T22:34:11.807Z,16.36
2024-04-30T22:36:41.658Z,16.35
2024-04-30T22:39:11.483Z,16.33
2024-04-30T22:41:38.633Z,16.34
2024-04-30T22:44:08.606Z,16.34
2024-04-30T22:46:35.802Z,16.37
2024-04-30T22:49:05.804Z,16.42
2024-04-30T22:51:33.926Z,16.44
2024-04-30T22:54:06.351Z,16.43
2024-04-30T22:56:34.709Z,16.39
2024-04-30T22:59:04.764Z,16.46
2024-04-30T23:01:34.814Z,16.47
2024-04-30T23:04:02.235Z,16.50
2024-04-30T23:06:32.519Z,16.50
2024-04-30T23:08:59.723Z,16.50
2024-04-30T23:11:32.134Z,16.52
2024-04-30T23:13:59.331Z,16.56
2024-04-30T23:16:29.131Z,16.57
2024-04-30T23:18:56.295Z,16.60
2024-04-30T23:21:26.143Z,16.62
2024-04-30T23:23:53.413Z,16.58
2024-04-30T23:26:23.302Z,16.62
2024-04-30T23:28:53.907Z,16.64
2024-04-30T23:31:23.712Z,16.66
2024-04-30T23:33:51.710Z,16.69
2024-04-30T23:36:21.783Z,16.71
2024-04-30T23:38:49.187Z,16.71
2024-04-30T23:41:18.968Z,16.74
2024-04-30T23:43:46.148Z,16.74
2024-04-30T23:46:18.597Z,16.73
2024-04-30T23:48:45.798Z,16.73
2024-04-30T23:51:16.170Z,16.71
2024-04-30T23:53:44.120Z,16.73
2024-04-30T23:56:15.448Z,16.77
2024-04-30T23:58:42.676Z,16.87
